createdAt,value
2022-08-24T00:01:34.733Z,10.18
2022-08-24T00:04:20.951Z,9.73
2022-08-24T00:07:13.010Z,10.30
2022-08-24T00:12:56.060Z,9.38
2022-08-24T00:15:42.100Z,9.68
2022-08-24T00:18:28.424Z,9.32
2022-08-24T00:21:15.091Z,10.00
2022-08-24T00:24:03.104Z,9.27
2022-08-24T00:26:49.367Z,9.48
2022-08-24T00:29:35.625Z,9.85
2022-08-24T00:32:21.936Z,9.02
2022-08-24T00:35:08.708Z,9.52
2022-08-24T00:37:55.414Z,10.15
2022-08-24T00:40:45.904Z,9.88
2022-08-24T00:43:33.093Z,9.88
2022-08-24T00:46:23.140Z,9.70
2022-08-24T00:49:21.486Z,9.18
2022-08-24T00:52:56.264Z,9.10
2022-08-24T00:55:49.494Z,10.10
2022-08-24T00:58:39.336Z,9.02
2022-08-24T01:01:26.644Z,10.77
2022-08-24T01:04:16.744Z,9.45
2022-08-24T01:07:04.463Z,9.77
2022-08-24T01:09:57.002Z,9.63
2022-08-24T01:12:50.544Z,9.70
2022-08-24T01:15:50.094Z,9.25
2022-08-24T01:18:52.510Z,9.60
2022-08-24T01:21:56.419Z,9.48
2022-08-24T01:24:42.868Z,9.40
2022-08-24T01:27:29.502Z,9.48
2022-08-24T01:30:17.048Z,8.57
2022-08-24T01:33:06.248Z,10.23
2022-08-24T01:35:58.724Z,9.27
2022-08-24T01:38:46.029Z,10.00
2022-08-24T01:41:32.186Z,9.60
2022-08-24T01:44:20.756Z,9.80
2022-08-24T01:47:08.756Z,9.70
2022-08-24T01:49:54.965Z,9.43
2022-08-24T01:53:03.968Z,8.90
2022-08-24T01:55:50.278Z,9.73
2022-08-24T01:58:37.078Z,9.60
2022-08-24T02:01:23.512Z,9.18
2022-08-24T02:04:10.190Z,9.75
2022-08-24T02:06:56.774Z,10.25
2022-08-24T02:09:43.101Z,9.05
2022-08-24T02:12:29.214Z,9.98
2022-08-24T02:15:15.828Z,10.63
2022-08-24T02:18:01.655Z,10.50
2022-08-24T02:20:47.993Z,10.63
2022-08-24T02:23:34.752Z,10.15
2022-08-24T02:26:20.821Z,10.25
2022-08-24T02:29:06.900Z,10.30
2022-08-24T02:31:52.748Z,10.27
2022-08-24T02:34:38.963Z,9.68
2022-08-24T02:37:25.019Z,10.02
2022-08-24T02:40:12.604Z,9.52
2022-08-24T02:42:59.205Z,9.95
2022-08-24T02:45:50.241Z,9.98
2022-08-24T02:48:38.150Z,11.05
2022-08-24T02:51:27.868Z,10.18
2022-08-24T02:54:18.356Z,10.68
2022-08-24T02:57:05.988Z,9.98
2022-08-24T02:59:52.267Z,10.52
2022-08-24T03:02:39.718Z,11.15
2022-08-24T03:05:26.294Z,10.32
2022-08-24T03:08:13.412Z,10.90
2022-08-24T03:11:00.527Z,10.98
2022-08-24T03:13:46.348Z,11.32
2022-08-24T03:16:32.340Z,11.48
2022-08-24T03:19:20.336Z,11.38
2022-08-24T03:22:06.590Z,10.95
2022-08-24T03:24:53.265Z,10.73
2022-08-24T03:27:39.626Z,11.27
2022-08-24T03:30:26.956Z,11.23
2022-08-24T03:33:13.138Z,11.13
2022-08-24T03:35:59.257Z,11.52
2022-08-24T03:38:45.965Z,11.65
2022-08-24T03:41:32.408Z,11.32
2022-08-24T03:44:25.904Z,11.95
2022-08-24T03:47:13.460Z,11.80
2022-08-24T03:49:59.594Z,11.18
2022-08-24T03:52:46.409Z,11.68
2022-08-24T03:55:32.548Z,11.98
2022-08-24T03:58:19.580Z,12.18
2022-08-24T04:01:06.170Z,12.35
2022-08-24T04:03:54.267Z,12.68
2022-08-24T04:06:46.840Z,13.10
2022-08-24T04:09:33.837Z,13.70
2022-08-24T04:12:19.884Z,12.02
2022-08-24T04:15:10.424Z,12.25
2022-08-24T04:17:56.737Z,12.77
2022-08-24T04:20:43.490Z,12.50
2022-08-24T04:23:47.074Z,11.98
2022-08-24T04:26:45.629Z,12.48
2022-08-24T04:29:35.887Z,13.38
2022-08-24T04:32:21.841Z,13.10
2022-08-24T04:35:09.077Z,12.88
2022-08-24T04:37:55.164Z,13.32
2022-08-24T04:40:44.433Z,12.95
2022-08-24T04:43:34.805Z,12.93
2022-08-24T04:46:20.720Z,12.57
2022-08-24T04:49:06.578Z,13.90
2022-08-24T04:51:52.456Z,14.35
2022-08-24T04:54:38.803Z,12.60
2022-08-24T04:57:28.702Z,12.85
2022-08-24T05:00:16.645Z,13.00
2022-08-24T05:03:04.242Z,13.40
2022-08-24T05:05:51.504Z,13.02
2022-08-24T05:08:38.162Z,12.90
2022-08-24T05:11:24.805Z,11.85
2022-08-24T05:14:11.262Z,12.70
2022-08-24T05:16:58.503Z,12.77
2022-08-24T05:19:44.641Z,12.23
2022-08-24T05:22:30.923Z,12.52
2022-08-24T05:25:17.506Z,12.65
2022-08-24T05:28:03.792Z,12.23
2022-08-24T05:30:51.148Z,13.10
2022-08-24T05:33:38.087Z,12.23
2022-08-24T05:36:33.005Z,13.30
2022-08-24T05:39:19.002Z,12.43
2022-08-24T05:42:13.648Z,12.60
2022-08-24T05:45:07.183Z,12.15
2022-08-24T05:47:53.372Z,12.23
2022-08-24T05:50:59.706Z,14.00
2022-08-24T05:53:50.492Z,13.80
2022-08-24T05:56:37.588Z,13.10
2022-08-24T05:59:23.588Z,12.52
2022-08-24T06:02:12.443Z,12.23
2022-08-24T06:04:58.800Z,12.00
2022-08-24T06:07:44.767Z,12.10
2022-08-24T06:10:36.650Z,10.85
2022-08-24T06:16:21.572Z,10.95
2022-08-24T06:19:11.344Z,11.18
2022-08-24T06:21:57.674Z,10.85
2022-08-24T06:25:04.781Z,11.70
2022-08-24T06:27:50.940Z,10.35
2022-08-24T06:30:37.661Z,11.40
2022-08-24T06:33:35.834Z,11.40
2022-08-24T06:36:23.017Z,11.20
2022-08-24T06:39:09.994Z,11.40
2022-08-24T06:42:00.155Z,10.98
2022-08-24T06:44:51.057Z,11.48
2022-08-24T06:47:41.837Z,11.32
2022-08-24T06:50:28.489Z,11.85
2022-08-24T06:53:15.849Z,11.30
2022-08-24T06:56:02.129Z,11.30
2022-08-24T06:58:52.552Z,11.18
2022-08-24T07:01:38.898Z,11.07
2022-08-24T07:04:28.230Z,11.52
2022-08-24T07:07:17.673Z,11.52
2022-08-24T07:10:05.325Z,10.50
2022-08-24T07:12:51.258Z,11.20
2022-08-24T07:15:37.910Z,11.32
2022-08-24T07:18:28.971Z,11.57
2022-08-24T07:21:19.331Z,11.25
2022-08-24T07:24:07.264Z,11.13
2022-08-24T07:26:56.351Z,10.40
2022-08-24T14:15:17.188Z,9.70
2022-08-24T14:18:11.572Z,9.80
2022-08-24T14:21:27.190Z,9.60
2022-08-24T14:24:34.613Z,9.10
2022-08-24T14:27:43.881Z,7.68
2022-08-24T14:30:29.897Z,8.57
2022-08-24T14:33:27.197Z,8.00
2022-08-24T14:36:17.905Z,7.15
2022-08-24T14:39:10.070Z,8.02
2022-08-24T14:41:59.181Z,7.88
2022-08-24T14:45:02.561Z,7.35
2022-08-24T14:48:03.822Z,7.57
2022-08-24T14:51:17.175Z,6.63
2022-08-24T14:54:30.544Z,7.38
2022-08-24T14:57:36.848Z,6.50
2022-08-24T15:00:26.009Z,7.53
2022-08-24T15:03:30.569Z,7.10
2022-08-24T15:06:27.774Z,6.60
2022-08-24T16:02:26.013Z,9.10
2022-08-24T16:05:37.043Z,8.35
2022-08-24T16:08:23.931Z,7.82
2022-08-24T16:11:22.217Z,8.50
2022-08-24T16:14:47.867Z,8.30
2022-08-24T16:17:49.306Z,8.43
2022-08-24T16:20:37.465Z,8.80
2022-08-24T16:23:28.642Z,8.43
2022-08-24T16:26:38.662Z,8.80
2022-08-24T16:29:38.932Z,8.98
2022-08-24T16:32:30.564Z,9.15
2022-08-24T16:35:25.464Z,9.68
2022-08-24T16:38:11.158Z,9.10
2022-08-24T16:41:02.621Z,8.77
2022-08-24T16:43:49.222Z,8.32
2022-08-24T16:46:35.642Z,8.75
2022-08-24T16:49:21.535Z,8.45
2022-08-24T16:52:08.368Z,8.75
2022-08-24T16:54:54.412Z,9.15
2022-08-24T16:57:40.318Z,8.20
2022-08-24T17:00:26.194Z,8.40
2022-08-24T17:03:15.227Z,8.20
2022-08-24T17:06:01.309Z,8.63
2022-08-24T17:08:47.917Z,7.78
2022-08-24T17:11:34.740Z,8.50
2022-08-24T17:14:20.761Z,7.72
2022-08-24T17:17:13.373Z,7.88
2022-08-24T17:19:59.458Z,7.88
2022-08-24T17:22:45.384Z,7.00
2022-08-24T17:25:31.492Z,7.28
2022-08-24T17:28:18.545Z,7.43
2022-08-24T17:31:06.201Z,7.22
2022-08-24T17:33:53.187Z,7.38
2022-08-24T17:36:43.514Z,8.60
2022-08-24T17:39:29.894Z,7.25
2022-08-24T17:42:39.982Z,7.93
2022-08-24T17:45:23.008Z,7.90
2022-08-24T17:48:19.979Z,7.75
2022-08-24T17:51:05.934Z,8.30
2022-08-24T17:53:52.229Z,8.20
2022-08-24T17:56:40.961Z,7.75
2022-08-24T17:59:33.045Z,8.10
2022-08-24T18:02:19.335Z,8.07
2022-08-24T18:05:08.222Z,7.93
2022-08-24T18:07:54.958Z,8.40
2022-08-24T18:10:41.393Z,7.75
2022-08-24T18:13:28.058Z,8.07
2022-08-24T18:16:20.820Z,8.13
2022-08-24T18:19:06.912Z,7.78
2022-08-24T18:21:52.876Z,8.27
2022-08-24T18:24:42.371Z,8.35
2022-08-24T18:27:30.461Z,8.27
2022-08-24T18:30:30.486Z,8.30
2022-08-24T18:33:17.569Z,8.38
2022-08-24T18:36:03.893Z,8.15
2022-08-24T18:38:50.236Z,8.95
2022-08-24T18:41:38.563Z,9.20
2022-08-24T18:44:28.351Z,9.52
2022-08-24T18:50:05.229Z,10.07
2022-08-24T18:52:51.210Z,9.60
2022-08-24T18:55:39.089Z,10.05
2022-08-24T18:58:25.367Z,9.38
2022-08-24T19:01:12.235Z,10.50
2022-08-24T19:03:58.981Z,10.35
2022-08-24T19:06:44.841Z,10.90
2022-08-24T19:09:34.203Z,10.23
2022-08-24T19:12:20.937Z,11.23
2022-08-24T19:15:07.784Z,11.32
2022-08-24T19:18:16.084Z,11.90
2022-08-24T19:21:02.217Z,10.57
2022-08-24T19:23:48.430Z,11.90
2022-08-24T19:26:36.174Z,11.80
2022-08-24T19:29:44.839Z,11.63
2022-08-24T19:32:29.710Z,11.57
2022-08-24T19:35:16.421Z,11.95
2022-08-24T19:38:02.841Z,14.02
2022-08-24T19:40:49.129Z,13.00
2022-08-24T19:43:55.704Z,12.82
2022-08-24T19:46:42.345Z,13.05
2022-08-24T19:49:28.254Z,13.50
2022-08-24T19:52:15.064Z,14.07
2022-08-24T19:55:01.126Z,13.40
2022-08-24T19:57:47.323Z,14.45
2022-08-24T20:00:57.763Z,13.52
2022-08-24T20:03:44.099Z,12.23
2022-08-24T20:06:32.001Z,13.38
2022-08-24T20:09:21.750Z,12.90
2022-08-24T20:12:09.343Z,12.23
2022-08-24T20:14:55.543Z,11.80
2022-08-24T20:17:41.691Z,12.75
2022-08-24T20:20:28.578Z,12.20
2022-08-24T20:23:14.796Z,12.32
2022-08-24T20:26:03.315Z,12.52
2022-08-24T20:28:51.967Z,12.63
2022-08-24T20:31:38.810Z,12.38
2022-08-24T20:34:25.162Z,12.27
2022-08-24T20:37:17.456Z,12.43
2022-08-24T20:40:04.383Z,11.93
2022-08-24T20:42:50.641Z,12.95
2022-08-24T20:45:37.596Z,12.68
2022-08-24T20:48:28.992Z,12.63
2022-08-24T20:51:15.471Z,12.63
2022-08-24T20:54:01.503Z,12.40
2022-08-24T20:56:48.750Z,12.65
2022-08-24T20:59:35.389Z,12.82
2022-08-24T21:02:21.645Z,12.80
2022-08-24T21:05:08.391Z,13.23
2022-08-24T21:07:57.266Z,12.98
2022-08-24T21:10:43.529Z,18.35
2022-08-24T21:13:29.585Z,13.73
2022-08-24T21:16:16.611Z,12.48
2022-08-24T21:19:03.427Z,12.20
2022-08-24T21:21:49.457Z,12.52
2022-08-24T21:24:35.725Z,13.05
2022-08-24T21:27:23.616Z,15.15
2022-08-24T21:30:12.535Z,14.30
2022-08-24T21:33:20.310Z,14.10
2022-08-24T21:36:09.099Z,14.90
2022-08-24T21:38:55.219Z,13.48
2022-08-24T21:41:41.563Z,13.85
2022-08-24T21:44:27.799Z,14.60
2022-08-24T21:47:13.626Z,13.30
2022-08-24T21:49:59.630Z,13.68
2022-08-24T21:52:45.461Z,14.48
2022-08-24T21:55:38.239Z,14.43
2022-08-24T21:58:24.486Z,14.73
2022-08-24T22:01:10.333Z,14.07
2022-08-24T22:03:56.414Z,15.43
2022-08-24T22:06:42.701Z,15.45
2022-08-24T22:09:28.906Z,16.05
2022-08-24T22:12:15.309Z,15.95
2022-08-24T22:15:02.640Z,16.30
2022-08-24T22:17:52.482Z,15.50
2022-08-24T22:20:39.178Z,16.45
2022-08-24T22:23:26.400Z,16.77
2022-08-24T22:26:13.465Z,17.15
2022-08-24T22:29:00.892Z,16.67
2022-08-24T22:31:47.043Z,16.95
2022-08-24T22:34:33.243Z,18.42
2022-08-24T22:37:19.210Z,18.08
2022-08-24T22:40:06.570Z,19.02
2022-08-24T22:43:08.274Z,18.13
2022-08-24T22:45:54.310Z,18.45
2022-08-24T22:48:40.675Z,20.20
2022-08-24T22:51:26.684Z,18.60
2022-08-24T22:54:12.847Z,19.70
2022-08-24T22:56:58.946Z,18.25
2022-08-24T22:59:45.901Z,19.92
2022-08-24T23:02:32.301Z,20.05
2022-08-24T23:05:18.685Z,19.10
2022-08-24T23:08:05.698Z,19.25
2022-08-24T23:10:51.453Z,20.52
2022-08-24T23:13:41.976Z,21.17
2022-08-24T23:16:29.894Z,21.42
2022-08-24T23:19:36.634Z,21.00
2022-08-24T23:22:22.697Z,20.63
2022-08-24T23:25:11.699Z,22.05
2022-08-24T23:27:57.573Z,22.38
2022-08-24T23:30:43.554Z,22.08
2022-08-24T23:33:29.349Z,21.67
2022-08-24T23:36:21.431Z,22.85
2022-08-24T23:39:09.097Z,24.30
2022-08-24T23:41:55.224Z,21.48
2022-08-24T23:44:41.367Z,23.05
2022-08-24T23:47:27.825Z,22.60
2022-08-24T23:50:13.907Z,24.08
2022-08-24T23:52:59.931Z,23.45
2022-08-24T23:55:46.990Z,22.60
2022-08-24T23:58:33.815Z,22.50
